Aviation Digital Data Service (ADDS)

Output produced by TAFs form (1752 UTC 19 April 2014)
found at http://www.aviationweather.gov/adds/tafs/
 
KSBY 191728Z 1918/2018 06011KT P6SM BKN200 
     FM200000 05006KT P6SM BKN250 
     FM201200 06016KT P6SM SKC